Hlavní strana
METAR-TAF:

METAR-TAF

Letiště :

Moose Jaw, Saskatchewan, Kanada

zeměpisná šířka: 50-20N, zeměpisná délka: 105-33W, výška: 577 m

Aktuální stav počasí

Zpráva byla vytvořena před 54 minutami, v 22:00 UTC
Západoseverozápadní vítr 14 kt
Teplota 22°C
Vlhkost vzduchu 20%
Tlak 1019 hPa
Viditelnost: 24.1 km
Skoro jasno ve výšce 28000 ft

METAR: CYMJ 172200Z 29014KT 15SM FEW280 22/M02 A3008 RMK CI1 SLP198

Čas: 16:54 (22:54 UTC)

Předpověď počasí

Zpráva byla vytvořena před 5 hodinami a 24 minutami, v 17:30 UTC
Předpověď platná od 17 v 18 UTC do 18 v 06 UTC
Jihojihozápadní vítr 5 kt
Viditelnost: 10 km
Jasno
Změna
od 17 v 18 UTC do 17 v 20 UTC
Západojihozápadní vítr 12 kt
Změna
od 17 v 22 UTC do 17 v 24 UTC
Západojihozápadní vítr 8 kt

TAF: CYMJ 171730Z 1718/1806 20005KT P6SM SKC BECMG 1718/1720 25012KT BECMG 1722/1724 24008KT RMK NXT FCST BY 180000Z

Stav a předpovědi počasí z více než 4 000 letišť (zprávy METAR a TAF).

Červené a žluté tečky na mapě představují dostupné meteorologické stanice.

Když kurzor umístíte na tečku, zobrazí se název stanice.

Pak kliknutím zobrazíte stav a předpověď počasí.

Chcete-li změnit mapu, kliknutím na zelené tlačítko se znaménkem +mapu přiblížíte, kliknutím na zelené tlačítko se znaménkem – mapu oddálíte a kliknutím na zelené šipky přejdete na sousední mapy.


METAR-TAF: